sensor_id;sensor_type;location;lat;lon;timestamp;P1;durP1;ratioP1;P2;durP2;ratioP2
42904;SDS011;28550;51.228;4.528;2023-08-06T00:01:35;5.88;;;3.72;;
42904;SDS011;28550;51.228;4.528;2023-08-06T00:04:00;5.13;;;3.72;;
42904;SDS011;28550;51.228;4.528;2023-08-06T00:06:29;5.78;;;3.65;;
42904;SDS011;28550;51.228;4.528;2023-08-06T00:08:56;6.75;;;3.92;;
42904;SDS011;28550;51.228;4.528;2023-08-06T00:11:23;4.20;;;3.30;;
42904;SDS011;28550;51.228;4.528;2023-08-06T00:13:50;6.97;;;3.75;;
42904;SDS011;28550;51.228;4.528;2023-08-06T00:16:23;10.35;;;3.85;;
42904;SDS011;28550;51.228;4.528;2023-08-06T00:18:49;5.28;;;3.88;;
42904;SDS011;28550;51.228;4.528;2023-08-06T00:21:19;5.00;;;3.10;;
42904;SDS011;28550;51.228;4.528;2023-08-06T00:23:51;10.15;;;3.63;;
42904;SDS011;28550;51.228;4.528;2023-08-06T00:26:18;5.32;;;3.20;;
42904;SDS011;28550;51.228;4.528;2023-08-06T00:28:50;4.78;;;3.63;;
42904;SDS011;28550;51.228;4.528;2023-08-06T00:31:18;4.40;;;3.13;;
42904;SDS011;28550;51.228;4.528;2023-08-06T00:33:46;4.55;;;3.22;;
42904;SDS011;28550;51.228;4.528;2023-08-06T00:36:15;4.88;;;2.47;;
42904;SDS011;28550;51.228;4.528;2023-08-06T00:38:44;6.53;;;3.50;;
42904;SDS011;28550;51.228;4.528;2023-08-06T00:41:11;4.72;;;2.80;;
42904;SDS011;28550;51.228;4.528;2023-08-06T00:43:37;2.75;;;2.30;;
42904;SDS011;28550;51.228;4.528;2023-08-06T00:46:06;5.60;;;2.60;;
42904;SDS011;28550;51.228;4.528;2023-08-06T00:48:35;3.72;;;2.35;;
42904;SDS011;28550;51.228;4.528;2023-08-06T00:51:01;5.13;;;2.70;;
42904;SDS011;28550;51.228;4.528;2023-08-06T00:53:27;3.30;;;2.10;;
42904;SDS011;28550;51.228;4.528;2023-08-06T00:55:53;3.65;;;2.15;;
42904;SDS011;28550;51.228;4.528;2023-08-06T00:58:25;4.53;;;2.50;;
42904;SDS011;28550;51.228;4.528;2023-08-06T01:00:57;5.05;;;2.50;;
42904;SDS011;28550;51.228;4.528;2023-08-06T01:03:24;6.15;;;2.22;;
42904;SDS011;28550;51.228;4.528;2023-08-06T01:06:04;4.28;;;2.45;;
42904;SDS011;28550;51.228;4.528;2023-08-06T01:08:43;3.95;;;2.45;;
42904;SDS011;28550;51.228;4.528;2023-08-06T01:11:32;6.50;;;3.15;;
42904;SDS011;28550;51.228;4.528;2023-08-06T01:14:23;3.85;;;2.60;;
42904;SDS011;28550;51.228;4.528;2023-08-06T01:16:56;2.92;;;2.60;;
42904;SDS011;28550;51.228;4.528;2023-08-06T01:19:26;3.95;;;2.95;;
42904;SDS011;28550;51.228;4.528;2023-08-06T01:21:52;2.92;;;2.42;;
42904;SDS011;28550;51.228;4.528;2023-08-06T01:24:30;4.28;;;2.40;;
42904;SDS011;28550;51.228;4.528;2023-08-06T01:27:09;3.97;;;2.33;;
42904;SDS011;28550;51.228;4.528;2023-08-06T01:29:44;4.25;;;2.72;;
42904;SDS011;28550;51.228;4.528;2023-08-06T01:32:25;5.10;;;2.72;;
42904;SDS011;28550;51.228;4.528;2023-08-06T01:35:01;9.82;;;3.10;;
42904;SDS011;28550;51.228;4.528;2023-08-06T01:37:29;3.92;;;2.90;;
42904;SDS011;28550;51.228;4.528;2023-08-06T01:39:57;4.15;;;3.17;;
42904;SDS011;28550;51.228;4.528;2023-08-06T01:42:40;3.17;;;2.88;;
42904;SDS011;28550;51.228;4.528;2023-08-06T01:45:11;4.28;;;2.80;;
42904;SDS011;28550;51.228;4.528;2023-08-06T01:47:48;4.97;;;3.40;;
42904;SDS011;28550;51.228;4.528;2023-08-06T01:50:19;4.85;;;2.67;;
42904;SDS011;28550;51.228;4.528;2023-08-06T01:52:44;2.63;;;2.42;;
42904;SDS011;28550;51.228;4.528;2023-08-06T01:55:16;3.80;;;2.80;;
42904;SDS011;28550;51.228;4.528;2023-08-06T01:57:44;3.38;;;2.63;;
42904;SDS011;28550;51.228;4.528;2023-08-06T02:00:14;3.85;;;2.47;;
42904;SDS011;28550;51.228;4.528;2023-08-06T02:02:47;10.70;;;3.13;;
42904;SDS011;28550;51.228;4.528;2023-08-06T02:05:14;3.13;;;2.53;;
42904;SDS011;28550;51.228;4.528;2023-08-06T02:07:41;4.13;;;2.70;;
42904;SDS011;28550;51.228;4.528;2023-08-06T02:10:10;4.28;;;2.75;;
42904;SDS011;28550;51.228;4.528;2023-08-06T02:12:43;5.45;;;3.22;;
42904;SDS011;28550;51.228;4.528;2023-08-06T02:15:09;5.13;;;2.58;;
42904;SDS011;28550;51.228;4.528;2023-08-06T02:17:37;3.72;;;2.75;;
42904;SDS011;28550;51.228;4.528;2023-08-06T02:20:04;5.15;;;3.03;;
42904;SDS011;28550;51.228;4.528;2023-08-06T02:22:34;3.63;;;2.83;;
42904;SDS011;28550;51.228;4.528;2023-08-06T02:25:23;7.10;;;3.47;;
42904;SDS011;28550;51.228;4.528;2023-08-06T02:27:51;4.28;;;2.58;;
42904;SDS011;28550;51.228;4.528;2023-08-06T02:30:21;4.60;;;3.33;;
42904;SDS011;28550;51.228;4.528;2023-08-06T02:32:51;7.60;;;3.83;;
42904;SDS011;28550;51.228;4.528;2023-08-06T02:35:22;6.65;;;3.17;;
42904;SDS011;28550;51.228;4.528;2023-08-06T02:37:58;5.47;;;3.30;;
42904;SDS011;28550;51.228;4.528;2023-08-06T02:40:24;3.92;;;2.83;;
42904;SDS011;28550;51.228;4.528;2023-08-06T02:42:54;4.63;;;2.78;;
42904;SDS011;28550;51.228;4.528;2023-08-06T02:45:20;6.57;;;3.08;;
42904;SDS011;28550;51.228;4.528;2023-08-06T02:47:47;4.82;;;2.95;;
42904;SDS011;28550;51.228;4.528;2023-08-06T02:50:14;4.65;;;2.58;;
42904;SDS011;28550;51.228;4.528;2023-08-06T02:52:46;4.97;;;3.00;;
42904;SDS011;28550;51.228;4.528;2023-08-06T02:55:14;5.82;;;2.60;;
42904;SDS011;28550;51.228;4.528;2023-08-06T02:57:56;3.42;;;2.38;;
42904;SDS011;28550;51.228;4.528;2023-08-06T03:00:59;2.70;;;2.40;;
42904;SDS011;28550;51.228;4.528;2023-08-06T03:03:32;2.70;;;2.17;;
42904;SDS011;28550;51.228;4.528;2023-08-06T03:05:58;2.80;;;2.35;;
42904;SDS011;28550;51.228;4.528;2023-08-06T03:08:28;3.42;;;2.10;;
42904;SDS011;28550;51.228;4.528;2023-08-06T03:11:06;3.83;;;2.35;;
42904;SDS011;28550;51.228;4.528;2023-08-06T03:13:41;4.75;;;2.90;;
42904;SDS011;28550;51.228;4.528;2023-08-06T03:16:10;4.65;;;2.38;;
42904;SDS011;28550;51.228;4.528;2023-08-06T03:18:37;4.28;;;2.58;;
42904;SDS011;28550;51.228;4.528;2023-08-06T03:21:06;4.47;;;2.30;;
42904;SDS011;28550;51.228;4.528;2023-08-06T03:23:39;2.90;;;2.33;;
42904;SDS011;28550;51.228;4.528;2023-08-06T03:26:14;5.97;;;1.88;;
42904;SDS011;28550;51.228;4.528;2023-08-06T03:28:43;1.83;;;1.63;;
42904;SDS011;28550;51.228;4.528;2023-08-06T03:31:12;2.15;;;1.60;;
42904;SDS011;28550;51.228;4.528;2023-08-06T03:33:57;4.22;;;1.73;;
42904;SDS011;28550;51.228;4.528;2023-08-06T03:36:33;6.13;;;1.70;;
42904;SDS011;28550;51.228;4.528;2023-08-06T03:39:03;3.33;;;1.50;;
42904;SDS011;28550;51.228;4.528;2023-08-06T03:41:44;3.08;;;2.20;;
42904;SDS011;28550;51.228;4.528;2023-08-06T03:44:10;3.30;;;2.08;;
42904;SDS011;28550;51.228;4.528;2023-08-06T03:46:38;4.25;;;2.22;;
42904;SDS011;28550;51.228;4.528;2023-08-06T03:49:11;5.40;;;2.60;;
42904;SDS011;28550;51.228;4.528;2023-08-06T03:54:05;5.72;;;2.60;;
42904;SDS011;28550;51.228;4.528;2023-08-06T03:56:37;7.05;;;2.40;;
42904;SDS011;28550;51.228;4.528;2023-08-06T03:59:06;3.45;;;2.38;;
42904;SDS011;28550;51.228;4.528;2023-08-06T04:01:50;5.03;;;2.08;;
42904;SDS011;28550;51.228;4.528;2023-08-06T04:04:31;4.60;;;2.03;;
42904;SDS011;28550;51.228;4.528;2023-08-06T04:10:10;2.60;;;1.85;;
42904;SDS011;28550;51.228;4.528;2023-08-06T04:12:41;2.40;;;1.75;;
42904;SDS011;28550;51.228;4.528;2023-08-06T04:15:17;4.50;;;1.90;;
42904;SDS011;28550;51.228;4.528;2023-08-06T04:17:46;4.82;;;2.30;;
42904;SDS011;28550;51.228;4.528;2023-08-06T04:20:31;4.93;;;2.33;;
42904;SDS011;28550;51.228;4.528;2023-08-06T04:23:15;6.97;;;2.92;;
42904;SDS011;28550;51.228;4.528;2023-08-06T04:26:02;5.85;;;2.97;;
42904;SDS011;28550;51.228;4.528;2023-08-06T04:28:33;7.85;;;2.95;;
42904;SDS011;28550;51.228;4.528;2023-08-06T04:31:09;3.63;;;2.20;;
42904;SDS011;28550;51.228;4.528;2023-08-06T04:40:36;7.25;;;4.93;;
42904;SDS011;28550;51.228;4.528;2023-08-06T04:43:05;9.48;;;6.00;;
42904;SDS011;28550;51.228;4.528;2023-08-06T04:45:37;7.93;;;5.63;;
42904;SDS011;28550;51.228;4.528;2023-08-06T04:48:03;11.23;;;6.78;;
42904;SDS011;28550;51.228;4.528;2023-08-06T04:50:34;8.30;;;6.10;;
42904;SDS011;28550;51.228;4.528;2023-08-06T04:53:04;12.15;;;8.25;;
42904;SDS011;28550;51.228;4.528;2023-08-06T04:55:30;13.95;;;9.13;;
42904;SDS011;28550;51.228;4.528;2023-08-06T04:57:58;11.90;;;9.73;;
42904;SDS011;28550;51.228;4.528;2023-08-06T05:00:24;17.98;;;11.43;;
42904;SDS011;28550;51.228;4.528;2023-08-06T05:02:50;15.50;;;10.15;;
42904;SDS011;28550;51.228;4.528;2023-08-06T05:05:21;20.83;;;11.35;;
42904;SDS011;28550;51.228;4.528;2023-08-06T05:07:48;21.50;;;11.25;;
42904;SDS011;28550;51.228;4.528;2023-08-06T05:10:15;22.25;;;11.57;;
42904;SDS011;28550;51.228;4.528;2023-08-06T05:12:44;15.88;;;10.23;;
42904;SDS011;28550;51.228;4.528;2023-08-06T05:15:14;16.92;;;10.30;;
42904;SDS011;28550;51.228;4.528;2023-08-06T05:17:41;18.10;;;9.77;;
42904;SDS011;28550;51.228;4.528;2023-08-06T05:20:07;17.95;;;9.50;;
42904;SDS011;28550;51.228;4.528;2023-08-06T05:22:33;18.55;;;9.93;;
42904;SDS011;28550;51.228;4.528;2023-08-06T05:25:03;19.15;;;8.23;;
42904;SDS011;28550;51.228;4.528;2023-08-06T05:27:39;16.73;;;8.15;;
42904;SDS011;28550;51.228;4.528;2023-08-06T05:30:09;14.63;;;6.18;;
42904;SDS011;28550;51.228;4.528;2023-08-06T05:32:35;26.42;;;7.03;;
42904;SDS011;28550;51.228;4.528;2023-08-06T05:35:01;17.58;;;6.35;;
42904;SDS011;28550;51.228;4.528;2023-08-06T05:37:36;19.20;;;6.70;;
42904;SDS011;28550;51.228;4.528;2023-08-06T05:40:08;16.75;;;6.90;;
42904;SDS011;28550;51.228;4.528;2023-08-06T05:42:40;11.85;;;5.88;;
42904;SDS011;28550;51.228;4.528;2023-08-06T05:45:08;16.05;;;7.13;;
42904;SDS011;28550;51.228;4.528;2023-08-06T05:47:38;11.98;;;5.30;;
42904;SDS011;28550;51.228;4.528;2023-08-06T05:50:06;14.63;;;6.55;;
42904;SDS011;28550;51.228;4.528;2023-08-06T05:52:46;12.05;;;6.13;;
42904;SDS011;28550;51.228;4.528;2023-08-06T05:55:12;14.70;;;5.22;;
42904;SDS011;28550;51.228;4.528;2023-08-06T05:57:38;12.07;;;4.90;;
42904;SDS011;28550;51.228;4.528;2023-08-06T06:00:07;11.40;;;4.80;;
42904;SDS011;28550;51.228;4.528;2023-08-06T06:02:35;16.02;;;4.97;;
42904;SDS011;28550;51.228;4.528;2023-08-06T06:05:01;15.98;;;4.97;;
42904;SDS011;28550;51.228;4.528;2023-08-06T06:07:31;18.60;;;5.68;;
42904;SDS011;28550;51.228;4.528;2023-08-06T06:09:57;16.23;;;4.60;;
42904;SDS011;28550;51.228;4.528;2023-08-06T06:12:26;12.07;;;4.50;;
42904;SDS011;28550;51.228;4.528;2023-08-06T06:14:55;11.15;;;4.80;;
42904;SDS011;28550;51.228;4.528;2023-08-06T06:17:21;15.13;;;5.03;;
42904;SDS011;28550;51.228;4.528;2023-08-06T06:22:20;13.23;;;5.28;;
42904;SDS011;28550;51.228;4.528;2023-08-06T06:24:51;14.48;;;4.75;;
42904;SDS011;28550;51.228;4.528;2023-08-06T06:27:17;18.88;;;4.75;;
42904;SDS011;28550;51.228;4.528;2023-08-06T06:30:08;8.80;;;4.68;;
42904;SDS011;28550;51.228;4.528;2023-08-06T06:32:34;15.02;;;4.70;;
42904;SDS011;28550;51.228;4.528;2023-08-06T06:35:04;11.45;;;4.60;;
42904;SDS011;28550;51.228;4.528;2023-08-06T06:37:30;12.15;;;4.78;;
42904;SDS011;28550;51.228;4.528;2023-08-06T06:40:06;15.40;;;5.35;;
42904;SDS011;28550;51.228;4.528;2023-08-06T06:42:45;13.68;;;5.45;;
42904;SDS011;28550;51.228;4.528;2023-08-06T06:45:17;12.50;;;5.13;;
42904;SDS011;28550;51.228;4.528;2023-08-06T06:47:56;10.27;;;4.88;;
42904;SDS011;28550;51.228;4.528;2023-08-06T06:50:28;10.15;;;4.80;;
42904;SDS011;28550;51.228;4.528;2023-08-06T06:52:57;12.82;;;5.05;;
42904;SDS011;28550;51.228;4.528;2023-08-06T06:55:28;19.05;;;5.25;;
42904;SDS011;28550;51.228;4.528;2023-08-06T06:58:04;15.88;;;5.15;;
42904;SDS011;28550;51.228;4.528;2023-08-06T07:00:35;11.27;;;4.70;;
42904;SDS011;28550;51.228;4.528;2023-08-06T07:03:03;12.38;;;4.65;;
42904;SDS011;28550;51.228;4.528;2023-08-06T07:05:29;21.58;;;4.85;;
42904;SDS011;28550;51.228;4.528;2023-08-06T07:07:55;14.05;;;4.57;;
42904;SDS011;28550;51.228;4.528;2023-08-06T07:10:22;7.90;;;4.45;;
42904;SDS011;28550;51.228;4.528;2023-08-06T07:12:53;11.45;;;4.85;;
42904;SDS011;28550;51.228;4.528;2023-08-06T07:15:25;9.68;;;4.07;;
42904;SDS011;28550;51.228;4.528;2023-08-06T07:18:04;9.88;;;4.00;;
42904;SDS011;28550;51.228;4.528;2023-08-06T07:20:31;9.27;;;3.15;;
42904;SDS011;28550;51.228;4.528;2023-08-06T07:23:02;13.90;;;3.67;;
42904;SDS011;28550;51.228;4.528;2023-08-06T07:25:34;9.25;;;2.45;;
42904;SDS011;28550;51.228;4.528;2023-08-06T07:28:00;18.92;;;2.78;;
42904;SDS011;28550;51.228;4.528;2023-08-06T07:30:31;14.10;;;3.17;;
42904;SDS011;28550;51.228;4.528;2023-08-06T07:32:58;15.38;;;2.90;;
42904;SDS011;28550;51.228;4.528;2023-08-06T07:35:24;13.77;;;2.97;;
42904;SDS011;28550;51.228;4.528;2023-08-06T07:37:55;12.65;;;3.20;;
42904;SDS011;28550;51.228;4.528;2023-08-06T07:40:22;19.02;;;4.00;;
42904;SDS011;28550;51.228;4.528;2023-08-06T07:42:49;7.72;;;2.67;;
42904;SDS011;28550;51.228;4.528;2023-08-06T07:45:23;18.17;;;3.17;;
42904;SDS011;28550;51.228;4.528;2023-08-06T07:47:59;18.50;;;3.15;;
42904;SDS011;28550;51.228;4.528;2023-08-06T07:50:25;11.93;;;2.75;;
42904;SDS011;28550;51.228;4.528;2023-08-06T07:52:56;12.65;;;3.13;;
42904;SDS011;28550;51.228;4.528;2023-08-06T07:55:22;8.52;;;2.78;;
42904;SDS011;28550;51.228;4.528;2023-08-06T07:57:50;10.82;;;3.38;;
42904;SDS011;28550;51.228;4.528;2023-08-06T08:00:21;12.75;;;2.92;;
42904;SDS011;28550;51.228;4.528;2023-08-06T08:02:53;13.32;;;3.03;;
42904;SDS011;28550;51.228;4.528;2023-08-06T08:05:20;11.18;;;2.67;;
42904;SDS011;28550;51.228;4.528;2023-08-06T08:07:46;11.13;;;2.25;;
42904;SDS011;28550;51.228;4.528;2023-08-06T08:10:14;6.75;;;2.28;;
42904;SDS011;28550;51.228;4.528;2023-08-06T08:12:40;11.00;;;2.65;;
42904;SDS011;28550;51.228;4.528;2023-08-06T08:17:48;10.60;;;1.90;;
42904;SDS011;28550;51.228;4.528;2023-08-06T08:20:16;6.97;;;2.33;;
42904;SDS011;28550;51.228;4.528;2023-08-06T08:25:32;15.80;;;2.72;;
42904;SDS011;28550;51.228;4.528;2023-08-06T08:28:07;7.18;;;2.03;;
42904;SDS011;28550;51.228;4.528;2023-08-06T08:30:33;6.05;;;2.17;;
42904;SDS011;28550;51.228;4.528;2023-08-06T08:35:32;10.68;;;2.28;;
42904;SDS011;28550;51.228;4.528;2023-08-06T08:38:01;14.48;;;3.25;;
42904;SDS011;28550;51.228;4.528;2023-08-06T08:40:34;14.65;;;3.95;;
42904;SDS011;28550;51.228;4.528;2023-08-06T08:43:13;12.45;;;2.92;;
42904;SDS011;28550;51.228;4.528;2023-08-06T08:45:43;15.30;;;3.75;;
42904;SDS011;28550;51.228;4.528;2023-08-06T08:48:43;14.00;;;3.25;;
42904;SDS011;28550;51.228;4.528;2023-08-06T08:51:51;7.82;;;3.25;;
42904;SDS011;28550;51.228;4.528;2023-08-06T08:54:18;7.03;;;3.22;;
42904;SDS011;28550;51.228;4.528;2023-08-06T08:56:48;9.65;;;2.60;;
42904;SDS011;28550;51.228;4.528;2023-08-06T08:59:17;7.88;;;2.50;;
42904;SDS011;28550;51.228;4.528;2023-08-06T09:01:45;7.28;;;2.83;;
42904;SDS011;28550;51.228;4.528;2023-08-06T09:04:16;11.30;;;3.03;;
42904;SDS011;28550;51.228;4.528;2023-08-06T09:06:43;7.63;;;2.15;;
42904;SDS011;28550;51.228;4.528;2023-08-06T09:09:17;9.38;;;2.33;;
42904;SDS011;28550;51.228;4.528;2023-08-06T09:11:52;5.82;;;2.50;;
42904;SDS011;28550;51.228;4.528;2023-08-06T09:14:21;9.32;;;2.40;;
42904;SDS011;28550;51.228;4.528;2023-08-06T09:19:50;8.55;;;3.13;;
42904;SDS011;28550;51.228;4.528;2023-08-06T09:22:16;9.90;;;3.92;;
42904;SDS011;28550;51.228;4.528;2023-08-06T09:24:48;12.98;;;3.00;;
42904;SDS011;28550;51.228;4.528;2023-08-06T09:29:45;6.88;;;2.38;;
42904;SDS011;28550;51.228;4.528;2023-08-06T09:32:12;8.60;;;2.83;;
42904;SDS011;28550;51.228;4.528;2023-08-06T09:34:41;10.55;;;3.15;;
42904;SDS011;28550;51.228;4.528;2023-08-06T09:37:10;9.38;;;2.80;;
42904;SDS011;28550;51.228;4.528;2023-08-06T09:39:38;7.43;;;2.60;;
42904;SDS011;28550;51.228;4.528;2023-08-06T09:42:10;9.43;;;3.60;;
42904;SDS011;28550;51.228;4.528;2023-08-06T09:44:51;10.65;;;2.78;;
42904;SDS011;28550;51.228;4.528;2023-08-06T09:47:37;10.43;;;2.60;;
42904;SDS011;28550;51.228;4.528;2023-08-06T09:50:45;10.00;;;2.25;;
42904;SDS011;28550;51.228;4.528;2023-08-06T09:53:17;12.15;;;3.92;;
42904;SDS011;28550;51.228;4.528;2023-08-06T09:58:37;12.57;;;2.80;;
42904;SDS011;28550;51.228;4.528;2023-08-06T10:01:09;11.40;;;3.10;;
42904;SDS011;28550;51.228;4.528;2023-08-06T10:03:57;9.43;;;2.90;;
42904;SDS011;28550;51.228;4.528;2023-08-06T10:06:23;10.02;;;2.85;;
42904;SDS011;28550;51.228;4.528;2023-08-06T10:09:04;9.02;;;2.00;;
42904;SDS011;28550;51.228;4.528;2023-08-06T10:11:41;9.02;;;2.50;;
42904;SDS011;28550;51.228;4.528;2023-08-06T10:17:08;8.38;;;2.22;;
42904;SDS011;28550;51.228;4.528;2023-08-06T10:19:53;7.72;;;1.73;;
42904;SDS011;28550;51.228;4.528;2023-08-06T10:22:27;9.55;;;2.08;;
42904;SDS011;28550;51.228;4.528;2023-08-06T10:24:53;9.65;;;2.80;;
42904;SDS011;28550;51.228;4.528;2023-08-06T10:33:02;6.43;;;1.98;;
42904;SDS011;28550;51.228;4.528;2023-08-06T10:35:36;11.98;;;2.78;;
42904;SDS011;28550;51.228;4.528;2023-08-06T10:40:43;6.65;;;1.80;;
42904;SDS011;28550;51.228;4.528;2023-08-06T10:43:35;11.02;;;3.17;;
42904;SDS011;28550;51.228;4.528;2023-08-06T10:46:52;13.27;;;2.47;;
42904;SDS011;28550;51.228;4.528;2023-08-06T10:49:24;9.65;;;1.80;;
42904;SDS011;28550;51.228;4.528;2023-08-06T10:51:50;5.88;;;2.55;;
42904;SDS011;28550;51.228;4.528;2023-08-06T10:54:25;8.27;;;1.58;;
42904;SDS011;28550;51.228;4.528;2023-08-06T10:56:54;9.77;;;1.38;;
42904;SDS011;28550;51.228;4.528;2023-08-06T10:59:20;5.97;;;1.42;;
42904;SDS011;28550;51.228;4.528;2023-08-06T11:01:48;9.18;;;1.70;;
42904;SDS011;28550;51.228;4.528;2023-08-06T11:04:13;8.52;;;2.13;;
42904;SDS011;28550;51.228;4.528;2023-08-06T11:06:42;6.28;;;1.65;;
42904;SDS011;28550;51.228;4.528;2023-08-06T11:09:19;3.67;;;1.45;;
42904;SDS011;28550;51.228;4.528;2023-08-06T11:11:56;8.65;;;2.17;;
42904;SDS011;28550;51.228;4.528;2023-08-06T11:14:34;5.82;;;1.88;;
42904;SDS011;28550;51.228;4.528;2023-08-06T11:17:17;9.60;;;2.42;;
42904;SDS011;28550;51.228;4.528;2023-08-06T11:19:48;6.10;;;1.80;;
42904;SDS011;28550;51.228;4.528;2023-08-06T11:22:15;9.55;;;2.83;;
42904;SDS011;28550;51.228;4.528;2023-08-06T11:25:02;10.52;;;3.30;;
42904;SDS011;28550;51.228;4.528;2023-08-06T11:27:27;7.40;;;3.85;;
42904;SDS011;28550;51.228;4.528;2023-08-06T11:29:57;11.65;;;2.95;;
42904;SDS011;28550;51.228;4.528;2023-08-06T11:32:31;13.52;;;3.58;;
42904;SDS011;28550;51.228;4.528;2023-08-06T11:37:34;9.88;;;3.58;;
42904;SDS011;28550;51.228;4.528;2023-08-06T11:40:00;12.35;;;2.78;;
42904;SDS011;28550;51.228;4.528;2023-08-06T11:42:30;4.75;;;2.00;;
42904;SDS011;28550;51.228;4.528;2023-08-06T11:44:58;9.48;;;2.00;;
42904;SDS011;28550;51.228;4.528;2023-08-06T11:47:26;7.00;;;2.38;;
42904;SDS011;28550;51.228;4.528;2023-08-06T11:49:54;7.13;;;2.20;;
42904;SDS011;28550;51.228;4.528;2023-08-06T11:52:23;4.88;;;2.22;;
42904;SDS011;28550;51.228;4.528;2023-08-06T11:57:31;8.27;;;2.80;;
42904;SDS011;28550;51.228;4.528;2023-08-06T12:00:10;7.68;;;3.00;;
42904;SDS011;28550;51.228;4.528;2023-08-06T12:02:38;10.77;;;2.50;;
42904;SDS011;28550;51.228;4.528;2023-08-06T12:05:18;9.70;;;3.00;;
42904;SDS011;28550;51.228;4.528;2023-08-06T12:07:52;10.90;;;3.05;;
42904;SDS011;28550;51.228;4.528;2023-08-06T12:10:21;8.32;;;2.10;;
42904;SDS011;28550;51.228;4.528;2023-08-06T12:12:49;8.65;;;3.00;;
42904;SDS011;28550;51.228;4.528;2023-08-06T12:15:21;4.93;;;2.00;;
42904;SDS011;28550;51.228;4.528;2023-08-06T12:20:51;15.07;;;4.55;;
42904;SDS011;28550;51.228;4.528;2023-08-06T12:24:00;10.02;;;3.22;;
42904;SDS011;28550;51.228;4.528;2023-08-06T12:26:39;8.90;;;3.00;;
42904;SDS011;28550;51.228;4.528;2023-08-06T12:29:05;17.50;;;4.18;;
42904;SDS011;28550;51.228;4.528;2023-08-06T12:31:32;8.48;;;3.35;;
42904;SDS011;28550;51.228;4.528;2023-08-06T12:34:04;11.05;;;3.22;;
42904;SDS011;28550;51.228;4.528;2023-08-06T12:36:36;11.32;;;2.88;;
42904;SDS011;28550;51.228;4.528;2023-08-06T12:41:53;10.80;;;2.70;;
42904;SDS011;28550;51.228;4.528;2023-08-06T12:44:26;5.33;;;2.30;;
42904;SDS011;28550;51.228;4.528;2023-08-06T12:46:52;9.00;;;2.30;;
42904;SDS011;28550;51.228;4.528;2023-08-06T12:52:08;14.55;;;2.30;;
42904;SDS011;28550;51.228;4.528;2023-08-06T12:54:37;8.93;;;2.45;;
42904;SDS011;28550;51.228;4.528;2023-08-06T12:57:05;6.30;;;2.00;;
42904;SDS011;28550;51.228;4.528;2023-08-06T12:59:35;8.88;;;2.22;;
42904;SDS011;28550;51.228;4.528;2023-08-06T13:02:18;5.38;;;2.13;;
42904;SDS011;28550;51.228;4.528;2023-08-06T13:04:47;4.90;;;1.40;;
42904;SDS011;28550;51.228;4.528;2023-08-06T13:07:20;4.28;;;1.52;;
42904;SDS011;28550;51.228;4.528;2023-08-06T13:10:01;11.07;;;2.28;;
42904;SDS011;28550;51.228;4.528;2023-08-06T13:12:54;6.28;;;1.88;;
42904;SDS011;28550;51.228;4.528;2023-08-06T13:15:20;5.97;;;2.50;;
42904;SDS011;28550;51.228;4.528;2023-08-06T13:18:00;8.52;;;2.17;;
42904;SDS011;28550;51.228;4.528;2023-08-06T13:20:58;10.18;;;1.92;;
42904;SDS011;28550;51.228;4.528;2023-08-06T13:23:26;6.32;;;1.75;;
42904;SDS011;28550;51.228;4.528;2023-08-06T13:26:00;4.97;;;1.35;;
42904;SDS011;28550;51.228;4.528;2023-08-06T13:34:02;5.18;;;1.85;;
42904;SDS011;28550;51.228;4.528;2023-08-06T13:36:32;7.53;;;1.52;;
42904;SDS011;28550;51.228;4.528;2023-08-06T13:39:00;12.30;;;3.30;;
42904;SDS011;28550;51.228;4.528;2023-08-06T13:41:32;13.25;;;2.55;;
42904;SDS011;28550;51.228;4.528;2023-08-06T13:44:03;9.15;;;2.08;;
42904;SDS011;28550;51.228;4.528;2023-08-06T13:46:32;12.05;;;3.15;;
42904;SDS011;28550;51.228;4.528;2023-08-06T13:49:01;10.30;;;3.08;;
42904;SDS011;28550;51.228;4.528;2023-08-06T13:51:28;13.43;;;2.58;;
42904;SDS011;28550;51.228;4.528;2023-08-06T13:53:57;13.90;;;4.15;;
42904;SDS011;28550;51.228;4.528;2023-08-06T13:56:36;11.65;;;2.55;;
42904;SDS011;28550;51.228;4.528;2023-08-06T13:59:03;21.17;;;4.43;;
42904;SDS011;28550;51.228;4.528;2023-08-06T14:01:30;10.90;;;2.90;;
42904;SDS011;28550;51.228;4.528;2023-08-06T14:04:02;9.98;;;3.03;;
42904;SDS011;28550;51.228;4.528;2023-08-06T14:06:36;5.70;;;2.20;;
42904;SDS011;28550;51.228;4.528;2023-08-06T14:09:11;10.63;;;2.50;;
42904;SDS011;28550;51.228;4.528;2023-08-06T14:11:41;7.70;;;2.50;;
42904;SDS011;28550;51.228;4.528;2023-08-06T14:14:39;10.95;;;3.65;;
42904;SDS011;28550;51.228;4.528;2023-08-06T14:17:16;12.10;;;2.92;;
42904;SDS011;28550;51.228;4.528;2023-08-06T14:22:21;18.65;;;3.53;;
42904;SDS011;28550;51.228;4.528;2023-08-06T14:25:06;9.85;;;2.85;;
42904;SDS011;28550;51.228;4.528;2023-08-06T14:27:59;11.85;;;3.60;;
42904;SDS011;28550;51.228;4.528;2023-08-06T14:30:49;9.68;;;3.13;;
42904;SDS011;28550;51.228;4.528;2023-08-06T14:33:35;6.43;;;2.67;;
42904;SDS011;28550;51.228;4.528;2023-08-06T14:39:10;15.82;;;3.88;;
42904;SDS011;28550;51.228;4.528;2023-08-06T14:44:44;13.32;;;3.20;;
42904;SDS011;28550;51.228;4.528;2023-08-06T14:47:25;14.00;;;3.60;;
42904;SDS011;28550;51.228;4.528;2023-08-06T14:50:17;11.10;;;3.55;;
42904;SDS011;28550;51.228;4.528;2023-08-06T14:52:43;15.05;;;4.18;;
42904;SDS011;28550;51.228;4.528;2023-08-06T14:58:39;18.73;;;4.22;;
42904;SDS011;28550;51.228;4.528;2023-08-06T15:01:08;12.40;;;4.05;;
42904;SDS011;28550;51.228;4.528;2023-08-06T15:03:35;16.05;;;4.25;;
42904;SDS011;28550;51.228;4.528;2023-08-06T15:06:06;11.50;;;3.38;;
42904;SDS011;28550;51.228;4.528;2023-08-06T15:08:41;10.98;;;3.17;;
42904;SDS011;28550;51.228;4.528;2023-08-06T15:13:52;9.20;;;2.75;;
42904;SDS011;28550;51.228;4.528;2023-08-06T15:16:20;13.63;;;3.17;;
42904;SDS011;28550;51.228;4.528;2023-08-06T15:19:06;7.95;;;2.72;;
42904;SDS011;28550;51.228;4.528;2023-08-06T15:24:28;10.05;;;3.42;;
42904;SDS011;28550;51.228;4.528;2023-08-06T15:27:20;16.08;;;5.03;;
42904;SDS011;28550;51.228;4.528;2023-08-06T15:29:46;12.52;;;5.43;;
42904;SDS011;28550;51.228;4.528;2023-08-06T15:32:15;15.90;;;5.40;;
42904;SDS011;28550;51.228;4.528;2023-08-06T15:34:51;17.00;;;4.25;;
42904;SDS011;28550;51.228;4.528;2023-08-06T15:37:33;22.30;;;5.30;;
42904;SDS011;28550;51.228;4.528;2023-08-06T15:40:06;24.10;;;5.95;;
42904;SDS011;28550;51.228;4.528;2023-08-06T15:42:42;23.63;;;5.90;;
42904;SDS011;28550;51.228;4.528;2023-08-06T15:45:33;22.30;;;6.28;;
42904;SDS011;28550;51.228;4.528;2023-08-06T15:48:20;18.08;;;5.97;;
42904;SDS011;28550;51.228;4.528;2023-08-06T15:51:33;21.45;;;6.22;;
42904;SDS011;28550;51.228;4.528;2023-08-06T15:54:09;16.15;;;4.50;;
42904;SDS011;28550;51.228;4.528;2023-08-06T15:57:18;21.10;;;4.13;;
42904;SDS011;28550;51.228;4.528;2023-08-06T16:00:25;11.52;;;4.57;;
42904;SDS011;28550;51.228;4.528;2023-08-06T16:03:14;12.65;;;3.35;;
42904;SDS011;28550;51.228;4.528;2023-08-06T16:05:41;12.10;;;4.53;;
42904;SDS011;28550;51.228;4.528;2023-08-06T16:08:33;15.10;;;4.22;;
42904;SDS011;28550;51.228;4.528;2023-08-06T16:11:26;12.63;;;3.53;;
42904;SDS011;28550;51.228;4.528;2023-08-06T16:13:57;11.23;;;4.03;;
42904;SDS011;28550;51.228;4.528;2023-08-06T16:16:37;13.05;;;5.75;;
42904;SDS011;28550;51.228;4.528;2023-08-06T16:20:02;22.35;;;4.80;;
42904;SDS011;28550;51.228;4.528;2023-08-06T16:22:49;21.92;;;5.55;;
42904;SDS011;28550;51.228;4.528;2023-08-06T16:25:23;19.02;;;6.38;;
42904;SDS011;28550;51.228;4.528;2023-08-06T16:28:03;15.00;;;6.03;;
42904;SDS011;28550;51.228;4.528;2023-08-06T16:33:34;19.02;;;6.43;;
42904;SDS011;28550;51.228;4.528;2023-08-06T16:36:07;12.68;;;4.53;;
42904;SDS011;28550;51.228;4.528;2023-08-06T16:38:38;14.50;;;4.93;;